INFORMACIÓN METAR y TAF
METAR FOR LDZA
ADDS - METARS form results

(1138 UTC 17 February 2019)
Data provider http://aviationweather.gov/metar/data/
 
METAR text: LDZA 171130Z VRB02KT CAVOK 11/01 Q1028 NOSIG
Conditions at: LDZA (ZAGREB/PLESO , HR) observed 1130 UTC 17 February 2019
Temperature: 11.0°C (52°F)
Dewpoint: 1.0°C (34°F) [RH = 50%]
Pressure (altimeter): 30.35 inches Hg (1028.0 mb)
Winds: variable direction winds at 2 MPH (2 knots; 1.0 m/s)
Visibility: 6 or more miles (10+ km)
Ceiling: ceiling and visibility are OK
Clouds: unknown
Weather: no significant weather observed at this time

METAR text: LDZA 171100Z VRB01KT CAVOK 09/01 Q1029 NOSIG
Conditions at: LDZA (ZAGREB/PLESO , HR) observed 1100 UTC 17 February 2019
Temperature: 9.0°C (48°F)
Dewpoint: 1.0°C (34°F) [RH = 57%]
Pressure (altimeter): 30.38 inches Hg (1029.0 mb)
Winds: variable direction winds at 1 MPH (1 knots; 0.5 m/s)
Visibility: 6 or more miles (10+ km)
Ceiling: ceiling and visibility are OK
Clouds: unknown
Weather: no significant weather observed at this time

Forecast for: LDZA (ZAGREB/PLESO , HR)
Text: TAF LDZA 171125Z 1712/1812 VRB02KT CAVOK TX13/1713Z TNM05/1804Z
Forecast period: 1200 UTC 17 February 2019 to 1200 UTC 18 February 2019
Forecast type: FROM: standard forecast or significant change
Winds: variable direction winds at 2 MPH (2 knots; 1.0 m/s)
Visibility: 6 or more miles 10+ km)
Ceiling: unknown
Clouds: missing
Weather: no significant weather forecast for this period
Text: PROB40 1804/1808 3000 MIFG BR
Forecast period: 0400 to 0800 UTC 18 February 2019
Forecast type: PROBABLE: 40 percent likelihood of the following during this time
Visibility: 1.86 miles (2.99 km)
Ceiling: unknown
Clouds: missing
Weather: MIFG BR  (shallow fog, mist)
Text: PROB30 1805/1807 0500 FZFG
Forecast period: 0500 to 0700 UTC 18 February 2019
Forecast type: PROBABLE: 30 percent likelihood of the following during this time
Visibility: 0.31 miles (0.50 km)
Ceiling: unknown
Clouds: missing
Weather: FZFG  (freezing fog)

 MAPA DE AEROPUERTO

 INFORMACIÓN DE PISTA
Pista 05 Longitud 10669 ft Ancho 148 ft
Elevación 353 ft Umbral desplazado 0 ft Rumbo de pista 47
Pista 23 Longitud 10669 ft Ancho 148 ft
Elevación 348 ft Umbral desplazado 0 ft Rumbo de pista 227

 FRECUANCIAS DEL AEROPUERTO
Tipo APP Nombre APP Frecuencia 120.7 MHZ
Tipo ATIS Nombre ATIS Frecuencia 124.375 MHZ
Tipo GND Nombre GND Frecuencia 121.85 MHZ
Tipo INFO Nombre INFO Frecuencia 124.85 MHZ
Tipo RDR Nombre RADAR Frecuencia 120.7 MHZ
Tipo TWR Nombre TWR Frecuencia 118.3 MHZ

 RADIO AYUDAS DEL AEROPUERTO
Tipo DME Nombre Iza Frecuencia 109500 KHZ
Tipo NDB Nombre Pisarovina Frecuencia 424 KHZ
Tipo NDB Nombre S.kKaljevec Frecuencia 350 KHZ
Tipo NDB Nombre Velika Gorica Frecuencia 325 KHZ
Tipo VOR-DME Nombre Zagreb Frecuencia 113700 KHZ
Tipo NDB Nombre Zagreb Frecuencia 367 KHZ



Powered by Virtual Airlines Manager [v2.6.2]